createdAt,value
2023-04-18T00:00:13.402Z,22.67
2023-04-18T00:01:15.176Z,21.02
2023-04-18T00:02:19.681Z,22.45
2023-04-18T00:03:21.938Z,20.73
2023-04-18T00:04:24.135Z,20.35
2023-04-18T00:05:26.330Z,18.60
2023-04-18T00:06:30.073Z,16.77
2023-04-18T00:07:31.845Z,15.38
2023-04-18T00:08:34.368Z,14.40
2023-04-18T00:09:36.250Z,14.95
2023-04-18T00:10:38.005Z,14.13
2023-04-18T00:11:39.816Z,15.40
2023-04-18T00:12:41.559Z,15.00
2023-04-18T00:13:43.372Z,16.05
2023-04-18T00:14:45.050Z,13.70
2023-04-18T00:15:46.819Z,14.23
2023-04-18T00:16:48.563Z,14.25
2023-04-18T00:17:50.317Z,14.07
2023-04-18T00:18:52.830Z,18.95
2023-04-18T00:19:56.451Z,13.20
2023-04-18T00:20:58.190Z,13.95
2023-04-18T00:22:00.060Z,15.60
2023-04-18T00:23:01.973Z,13.77
2023-04-18T00:24:03.729Z,14.88
2023-04-18T00:25:05.882Z,16.27
2023-04-18T00:26:07.567Z,15.63
2023-04-18T00:27:09.282Z,15.88
2023-04-18T00:28:11.043Z,14.85
2023-04-18T00:29:12.765Z,16.35
2023-04-18T00:30:14.877Z,15.85
2023-04-18T00:31:16.670Z,20.40
2023-04-18T00:32:18.564Z,17.15
2023-04-18T00:33:20.342Z,16.98
2023-04-18T00:34:22.028Z,22.15
2023-04-18T00:35:23.840Z,22.00
2023-04-18T00:36:27.199Z,17.15
2023-04-18T00:37:29.671Z,17.65
2023-04-18T00:38:31.421Z,21.48
2023-04-18T00:39:35.322Z,16.58
2023-04-18T00:40:37.951Z,20.00
2023-04-18T00:41:39.696Z,16.77
2023-04-18T00:42:41.438Z,19.33
2023-04-18T00:43:43.212Z,15.02
2023-04-18T00:44:44.923Z,16.65
2023-04-18T00:45:46.615Z,20.35
2023-04-18T00:46:48.462Z,15.88
2023-04-18T00:47:50.230Z,15.57
2023-04-18T00:48:52.084Z,19.23
2023-04-18T00:49:54.596Z,18.85
2023-04-18T00:50:56.863Z,15.85
2023-04-18T00:51:59.421Z,16.25
2023-04-18T00:53:01.284Z,15.02
2023-04-18T00:54:07.852Z,18.20
2023-04-18T00:55:10.278Z,15.30
2023-04-18T00:56:12.027Z,15.20
2023-04-18T00:57:13.858Z,17.02
2023-04-18T00:58:16.024Z,18.83
2023-04-18T00:59:17.969Z,15.02
2023-04-18T01:00:19.840Z,18.27
2023-04-18T01:01:22.252Z,15.23
2023-04-18T01:02:26.395Z,15.95
2023-04-18T01:03:28.558Z,17.25
2023-04-18T01:04:32.633Z,16.73
2023-04-18T01:05:36.366Z,16.75
2023-04-18T01:06:38.258Z,15.00
2023-04-18T01:07:42.934Z,16.73
2023-04-18T01:08:45.763Z,16.65
2023-04-18T01:09:47.920Z,17.13
2023-04-18T01:10:50.063Z,16.92
2023-04-18T01:11:51.923Z,16.65
2023-04-18T01:13:12.785Z,16.85
2023-04-18T01:14:14.788Z,15.18
2023-04-18T01:15:16.827Z,16.20
2023-04-18T01:16:18.571Z,15.43
2023-04-18T01:17:20.614Z,14.68
2023-04-18T01:18:22.696Z,12.75
2023-04-18T01:19:24.691Z,11.95
2023-04-18T01:20:26.540Z,12.23
2023-04-18T01:21:31.408Z,14.00
2023-04-18T01:22:33.609Z,14.60
2023-04-18T01:23:35.696Z,16.10
2023-04-18T01:24:37.444Z,14.77
2023-04-18T01:25:39.482Z,15.45
2023-04-18T01:26:43.707Z,14.27
2023-04-18T01:27:45.412Z,14.88
2023-04-18T01:28:47.122Z,14.35
2023-04-18T01:29:48.810Z,13.15
2023-04-18T01:30:50.603Z,17.13
2023-04-18T01:31:52.465Z,13.48
2023-04-18T01:32:54.542Z,13.18
2023-04-18T01:33:56.402Z,13.50
2023-04-18T01:34:58.096Z,13.13
2023-04-18T01:35:59.797Z,14.23
2023-04-18T01:37:01.582Z,15.32
2023-04-18T01:38:03.656Z,14.18
2023-04-18T01:39:05.560Z,13.93
2023-04-18T01:40:07.952Z,13.52
2023-04-18T01:41:09.676Z,12.88
2023-04-18T01:42:11.452Z,14.57
2023-04-18T01:43:13.211Z,13.52
2023-04-18T01:44:15.073Z,13.63
2023-04-18T01:45:17.663Z,12.43
2023-04-18T01:46:19.813Z,12.45
2023-04-18T01:47:21.599Z,12.02
2023-04-18T01:48:23.322Z,11.65
2023-04-18T01:49:25.020Z,11.60
2023-04-18T01:50:26.742Z,11.55
2023-04-18T01:51:28.527Z,12.05
2023-04-18T01:52:30.459Z,12.45
2023-04-18T01:53:32.407Z,11.98
2023-04-18T01:54:34.091Z,12.65
2023-04-18T01:55:35.971Z,10.70
2023-04-18T01:56:37.682Z,11.38
2023-04-18T01:57:39.360Z,10.95
2023-04-18T01:58:41.822Z,11.85
2023-04-18T01:59:43.550Z,11.13
2023-04-18T02:00:45.503Z,12.98
2023-04-18T02:01:47.256Z,14.05
2023-04-18T02:02:50.557Z,14.43
2023-04-18T02:03:52.940Z,13.20
2023-04-18T02:04:54.877Z,13.75
2023-04-18T02:05:56.610Z,13.63
2023-04-18T02:06:58.302Z,13.40
2023-04-18T02:07:59.991Z,14.35
2023-04-18T02:09:01.788Z,13.55
2023-04-18T02:10:04.039Z,13.75
2023-04-18T02:11:06.049Z,12.98
2023-04-18T02:12:07.809Z,13.95
2023-04-18T02:13:09.745Z,13.25
2023-04-18T02:14:11.865Z,14.23
2023-04-18T02:15:13.772Z,12.55
2023-04-18T02:16:15.539Z,11.50
2023-04-18T02:17:17.327Z,11.30
2023-04-18T02:18:19.034Z,10.50
2023-04-18T02:19:20.776Z,10.27
2023-04-18T02:20:22.780Z,10.40
2023-04-18T02:21:24.561Z,8.60
2023-04-18T02:22:26.264Z,8.95
2023-04-18T02:23:27.944Z,7.90
2023-04-18T02:24:29.690Z,8.27
2023-04-18T02:25:31.431Z,8.63
2023-04-18T02:26:33.149Z,7.75
2023-04-18T02:27:34.893Z,8.10
2023-04-18T02:28:39.251Z,8.20
2023-04-18T02:29:41.096Z,7.65
2023-04-18T02:30:42.831Z,7.10
2023-04-18T02:31:44.609Z,6.95
2023-04-18T02:32:46.982Z,6.40
2023-04-18T02:33:48.776Z,6.88
2023-04-18T02:34:50.576Z,6.90
2023-04-18T02:35:52.322Z,6.72
2023-04-18T02:36:54.001Z,7.18
2023-04-18T02:37:55.694Z,7.07
2023-04-18T02:38:57.481Z,7.10
2023-04-18T02:39:59.259Z,6.72
2023-04-18T02:41:01.079Z,6.75
2023-04-18T02:42:02.794Z,6.63
2023-04-18T02:43:04.624Z,5.72
2023-04-18T02:44:07.187Z,6.68
2023-04-18T02:45:09.872Z,6.55
2023-04-18T02:46:12.000Z,5.90
2023-04-18T02:47:13.757Z,6.03
2023-04-18T02:48:15.686Z,6.07
2023-04-18T02:49:17.398Z,5.47
2023-04-18T02:50:19.264Z,6.10
2023-04-18T02:51:20.988Z,5.53
2023-04-18T02:52:22.984Z,5.13
2023-04-18T02:53:25.209Z,5.90
2023-04-18T02:54:26.970Z,6.13
2023-04-18T02:55:28.719Z,6.28
2023-04-18T02:56:30.412Z,6.53
2023-04-18T02:57:32.142Z,6.45
2023-04-18T02:58:35.954Z,6.35
2023-04-18T02:59:37.638Z,7.78
2023-04-18T03:00:39.366Z,7.22
2023-04-18T03:01:41.143Z,7.60
2023-04-18T03:02:43.016Z,7.68
2023-04-18T03:03:44.826Z,5.40
2023-04-18T03:04:46.588Z,5.55
2023-04-18T03:05:48.617Z,5.32
2023-04-18T03:06:50.402Z,4.97
2023-04-18T03:07:52.168Z,4.68
2023-04-18T03:08:55.297Z,4.93
2023-04-18T03:09:57.030Z,4.53
2023-04-18T03:10:58.811Z,5.65
2023-04-18T03:12:02.260Z,4.78
2023-04-18T03:13:03.994Z,4.95
2023-04-18T03:14:05.768Z,5.18
2023-04-18T03:15:07.948Z,4.78
2023-04-18T03:16:09.735Z,3.97
2023-04-18T03:17:11.698Z,5.28
2023-04-18T03:18:13.380Z,4.18
2023-04-18T03:19:15.116Z,4.45
2023-04-18T03:20:17.838Z,4.43
2023-04-18T03:21:19.616Z,3.60
2023-04-18T03:22:21.424Z,5.47
2023-04-18T03:23:23.144Z,4.85
2023-04-18T03:24:24.850Z,4.22
2023-04-18T03:25:26.560Z,4.72
2023-04-18T03:26:28.627Z,4.53
2023-04-18T03:27:30.437Z,4.60
2023-04-18T03:28:32.180Z,5.30
2023-04-18T03:29:34.105Z,5.45
2023-04-18T03:30:36.023Z,4.82
2023-04-18T03:31:37.812Z,5.53
2023-04-18T03:32:39.577Z,5.35
2023-04-18T03:33:42.536Z,5.80
2023-04-18T03:34:44.223Z,6.22
2023-04-18T03:35:46.667Z,6.05
2023-04-18T03:36:48.535Z,6.47
2023-04-18T03:37:50.541Z,5.60
2023-04-18T03:38:52.276Z,6.07
2023-04-18T03:39:54.109Z,6.93
2023-04-18T03:40:55.824Z,7.03
2023-04-18T03:41:57.566Z,6.90
2023-04-18T03:43:00.137Z,6.70
2023-04-18T03:44:01.848Z,7.57
2023-04-18T03:45:03.851Z,6.93
2023-04-18T03:46:05.703Z,7.25
2023-04-18T03:47:07.679Z,7.78
2023-04-18T03:48:09.366Z,7.00
2023-04-18T03:49:11.093Z,8.30
2023-04-18T03:50:12.804Z,8.23
2023-04-18T03:51:14.858Z,8.07
2023-04-18T03:52:16.623Z,7.18
2023-04-18T03:53:18.341Z,7.57
2023-04-18T03:54:20.032Z,7.80
2023-04-18T03:55:22.032Z,6.80
2023-04-18T03:56:23.796Z,7.38
2023-04-18T03:57:25.607Z,6.95
2023-04-18T03:58:27.317Z,6.88
2023-04-18T03:59:29.655Z,7.32
2023-04-18T04:00:31.496Z,8.20
2023-04-18T04:01:33.800Z,8.27
2023-04-18T04:02:35.788Z,8.18
2023-04-18T04:03:37.689Z,8.38
2023-04-18T04:04:39.566Z,8.82
2023-04-18T04:05:41.476Z,9.10
2023-04-18T04:06:43.299Z,9.43
2023-04-18T04:07:45.224Z,9.52
2023-04-18T04:08:46.927Z,9.63
2023-04-18T04:09:48.710Z,10.52
2023-04-18T04:10:50.650Z,10.48
2023-04-18T04:11:52.387Z,10.50
2023-04-18T04:12:54.094Z,10.15
2023-04-18T04:13:55.829Z,9.88
2023-04-18T04:14:57.606Z,9.98
2023-04-18T04:15:59.469Z,9.55
2023-04-18T04:17:01.372Z,10.60
2023-04-18T04:18:03.116Z,10.27
2023-04-18T04:19:05.036Z,10.35
2023-04-18T04:20:07.569Z,12.05
2023-04-18T04:21:09.282Z,11.88
2023-04-18T04:22:11.285Z,11.95
2023-04-18T04:23:12.982Z,12.35
2023-04-18T04:24:14.912Z,12.05
2023-04-18T04:25:17.530Z,12.80
2023-04-18T04:26:19.273Z,13.98
2023-04-18T04:27:20.986Z,16.23
2023-04-18T04:28:23.372Z,16.83
2023-04-18T04:29:25.122Z,17.85
2023-04-18T04:30:27.227Z,17.48
2023-04-18T04:31:29.055Z,19.27
2023-04-18T04:32:30.909Z,19.10
2023-04-18T04:33:33.423Z,19.27
2023-04-18T04:34:35.906Z,19.17
2023-04-18T04:35:40.438Z,15.00
2023-04-18T04:36:43.253Z,13.95
2023-04-18T04:37:45.282Z,12.63
2023-04-18T04:38:47.414Z,10.93
2023-04-18T04:39:49.230Z,9.18
2023-04-18T04:40:51.563Z,6.95
2023-04-18T04:41:53.665Z,7.30
2023-04-18T04:42:56.218Z,6.32
2023-04-18T04:43:57.908Z,6.65
2023-04-18T04:44:59.664Z,6.72
2023-04-18T04:46:03.967Z,6.63
2023-04-18T04:47:05.852Z,6.57
2023-04-18T04:48:08.565Z,6.63
2023-04-18T04:49:13.544Z,7.10
2023-04-18T04:50:15.940Z,6.40
2023-04-18T04:51:17.679Z,7.60
2023-04-18T04:52:19.783Z,6.75
2023-04-18T04:53:22.157Z,6.97
2023-04-18T04:54:23.917Z,7.40
2023-04-18T04:55:25.656Z,8.10
2023-04-18T04:56:27.378Z,8.52
2023-04-18T04:57:32.215Z,9.38
2023-04-18T04:58:34.380Z,8.45
2023-04-18T04:59:36.327Z,10.27
2023-04-18T05:00:38.048Z,11.13
2023-04-18T05:01:48.205Z,10.05
2023-04-18T05:02:53.688Z,11.10
2023-04-18T05:03:55.862Z,12.43
2023-04-18T05:04:57.626Z,11.57
2023-04-18T05:06:00.154Z,12.15
2023-04-18T05:07:01.994Z,12.02
2023-04-18T05:08:04.130Z,12.15
2023-04-18T05:09:05.824Z,13.02
2023-04-18T05:10:07.886Z,13.25
2023-04-18T05:11:09.587Z,14.02
2023-04-18T05:12:11.349Z,13.10
2023-04-18T05:13:13.168Z,12.43
2023-04-18T05:14:16.112Z,14.38
2023-04-18T05:15:18.617Z,12.90
2023-04-18T05:16:20.967Z,12.45
2023-04-18T05:17:23.032Z,12.13
2023-04-18T05:18:24.868Z,11.80
2023-04-18T05:19:26.590Z,10.10
2023-04-18T05:20:28.411Z,10.27
2023-04-18T05:21:30.204Z,9.88
2023-04-18T05:22:32.543Z,10.77
2023-04-18T05:23:37.635Z,9.90
2023-04-18T05:24:39.670Z,9.48
2023-04-18T05:25:41.629Z,9.55
2023-04-18T05:26:43.509Z,9.15
2023-04-18T05:27:47.165Z,9.77
2023-04-18T05:28:49.272Z,10.13
2023-04-18T05:29:51.064Z,10.18
2023-04-18T05:30:52.885Z,9.68
2023-04-18T05:32:00.324Z,9.18
2023-04-18T05:33:02.420Z,9.90
2023-04-18T05:34:04.278Z,8.98
2023-04-18T05:35:07.210Z,8.45
2023-04-18T05:36:09.093Z,7.90
2023-04-18T05:37:10.921Z,8.50
2023-04-18T05:38:12.675Z,8.02
2023-04-18T05:39:14.422Z,8.32
2023-04-18T05:40:16.261Z,8.90
2023-04-18T05:41:17.963Z,9.18
2023-04-18T05:42:19.670Z,8.20
2023-04-18T05:43:22.164Z,8.43
2023-04-18T05:44:24.453Z,9.07
2023-04-18T05:45:26.267Z,9.30
2023-04-18T05:46:28.048Z,8.95
2023-04-18T05:47:30.508Z,9.98
2023-04-18T05:48:32.263Z,9.05
2023-04-18T05:49:33.994Z,9.82
2023-04-18T05:50:35.712Z,9.00
2023-04-18T05:51:37.591Z,9.07
2023-04-18T05:52:39.344Z,8.95
2023-04-18T05:53:41.062Z,8.27
2023-04-18T05:54:42.779Z,8.40
2023-04-18T05:55:46.593Z,8.38
2023-04-18T05:56:48.458Z,9.05
2023-04-18T05:57:50.177Z,8.88
2023-04-18T05:58:52.049Z,8.48
2023-04-18T05:59:53.764Z,7.72
2023-04-18T06:00:57.971Z,8.48
2023-04-18T06:01:59.695Z,8.35
2023-04-18T06:03:01.638Z,7.90
2023-04-18T06:04:03.788Z,7.78
2023-04-18T06:05:06.627Z,7.88
2023-04-18T06:06:08.765Z,7.68
2023-04-18T06:07:10.868Z,7.90
2023-04-18T06:08:12.669Z,7.63
2023-04-18T06:09:14.428Z,7.93
2023-04-18T06:10:16.371Z,7.82
2023-04-18T06:11:20.262Z,8.40
2023-04-18T06:12:22.020Z,8.38
2023-04-18T06:13:23.796Z,8.68
2023-04-18T06:14:26.256Z,8.63
2023-04-18T06:15:28.111Z,8.63
2023-04-18T06:16:29.935Z,9.05
2023-04-18T06:17:31.816Z,8.55
2023-04-18T06:18:34.176Z,8.55
2023-04-18T06:19:36.239Z,8.70
2023-04-18T06:20:38.019Z,8.80
2023-04-18T06:21:42.111Z,8.57
2023-04-18T06:22:43.840Z,8.57
2023-04-18T06:23:45.568Z,8.27
2023-04-18T06:24:47.302Z,8.00
2023-04-18T06:25:49.058Z,8.20
2023-04-18T06:26:50.947Z,8.65
2023-04-18T06:27:52.696Z,8.23
2023-04-18T06:28:54.474Z,8.63
2023-04-18T06:29:56.540Z,7.97
2023-04-18T06:30:58.268Z,8.75
2023-04-18T06:32:00.326Z,8.52
2023-04-18T06:33:02.274Z,9.13
2023-04-18T06:34:04.056Z,9.18
2023-04-18T06:35:06.349Z,9.25
2023-04-18T06:36:09.069Z,8.20
2023-04-18T06:37:11.705Z,8.40
2023-04-18T06:38:13.636Z,8.73
2023-04-18T06:39:15.380Z,8.70
2023-04-18T06:40:17.299Z,8.07
2023-04-18T06:41:19.080Z,8.25
2023-04-18T06:42:22.468Z,9.63
2023-04-18T06:43:24.630Z,9.75
2023-04-18T06:44:26.441Z,10.55
2023-04-18T06:45:30.811Z,10.82
2023-04-18T06:46:33.286Z,11.18
2023-04-18T06:47:35.094Z,12.32
2023-04-18T06:48:39.840Z,12.60
2023-04-18T06:49:41.534Z,12.20
2023-04-18T06:50:44.010Z,11.43
2023-04-18T06:51:46.171Z,12.10
2023-04-18T06:52:47.902Z,10.40
2023-04-18T06:53:52.837Z,9.93
2023-04-18T06:54:54.981Z,10.63
2023-04-18T06:55:56.810Z,10.32
2023-04-18T06:56:59.246Z,10.50
2023-04-18T06:58:00.944Z,10.02
2023-04-18T06:59:02.686Z,8.93
2023-04-18T07:00:05.639Z,8.93
2023-04-18T07:01:07.543Z,9.40
2023-04-18T07:02:09.387Z,9.80
2023-04-18T07:03:13.583Z,9.35
2023-04-18T07:04:15.861Z,8.82
2023-04-18T07:05:17.948Z,8.90
2023-04-18T07:06:19.674Z,9.18
2023-04-18T07:07:21.516Z,9.70
2023-04-18T07:08:23.261Z,9.90
2023-04-18T07:09:25.043Z,10.32
2023-04-18T07:10:26.746Z,8.80
2023-04-18T07:11:28.923Z,7.55
2023-04-18T07:12:30.664Z,10.85
2023-04-18T07:13:32.440Z,8.20
2023-04-18T07:14:34.400Z,9.48
2023-04-18T07:15:36.356Z,7.75
2023-04-18T07:16:38.618Z,8.73
2023-04-18T07:17:40.579Z,10.50
2023-04-18T07:18:42.289Z,9.30
2023-04-18T07:19:44.580Z,8.23
2023-04-18T07:20:46.323Z,6.85
2023-04-18T07:21:48.090Z,7.90
2023-04-18T07:22:49.789Z,9.55
2023-04-18T07:23:51.547Z,7.70
2023-04-18T07:24:53.293Z,7.70
2023-04-18T07:25:55.129Z,7.45
2023-04-18T07:26:57.075Z,9.13
2023-04-18T07:27:58.806Z,10.07
2023-04-18T07:29:00.684Z,9.57
2023-04-18T07:30:05.639Z,10.75
2023-04-18T07:31:11.727Z,10.10
2023-04-18T07:32:13.635Z,9.73
2023-04-18T07:33:15.399Z,10.32
2023-04-18T07:34:17.988Z,11.43
2023-04-18T07:35:19.736Z,12.05
2023-04-18T07:36:21.817Z,10.30
2023-04-18T07:37:23.772Z,10.07
2023-04-18T07:38:25.696Z,11.50
2023-04-18T07:39:27.504Z,13.93
2023-04-18T07:40:29.236Z,12.52
2023-04-18T07:41:31.287Z,11.85
2023-04-18T07:42:33.139Z,12.68
2023-04-18T07:43:34.950Z,13.05
2023-04-18T07:44:39.698Z,11.80
2023-04-18T07:45:43.422Z,11.88
2023-04-18T07:46:45.451Z,11.82
2023-04-18T07:47:47.250Z,11.35
2023-04-18T07:48:49.017Z,10.65
2023-04-18T07:49:50.977Z,10.60
2023-04-18T07:50:53.440Z,9.88
2023-04-18T07:51:56.488Z,9.23
2023-04-18T07:52:58.215Z,10.65
2023-04-18T07:53:59.937Z,11.70
2023-04-18T07:55:01.710Z,13.32
2023-04-18T07:56:03.485Z,13.00
2023-04-18T07:57:05.268Z,13.10
2023-04-18T07:58:06.978Z,13.07
2023-04-18T07:59:08.692Z,12.40
2023-04-18T08:00:12.604Z,13.73
2023-04-18T08:01:15.482Z,13.32
2023-04-18T08:02:17.241Z,11.25
2023-04-18T08:03:19.373Z,13.77
2023-04-18T08:04:21.608Z,12.95
2023-04-18T08:05:23.466Z,13.45
2023-04-18T08:06:26.466Z,11.23
2023-04-18T08:07:28.297Z,12.15
2023-04-18T08:08:30.060Z,11.88
2023-04-18T08:09:31.815Z,12.70
2023-04-18T08:10:34.264Z,10.82
2023-04-18T08:11:36.122Z,10.13
2023-04-18T08:12:37.991Z,10.00
2023-04-18T08:13:39.704Z,12.73
2023-04-18T08:14:41.848Z,11.60
2023-04-18T08:15:43.680Z,12.05
2023-04-18T08:16:46.673Z,12.20
2023-04-18T08:17:49.268Z,12.15
2023-04-18T08:18:51.050Z,12.43
2023-04-18T08:19:52.771Z,11.05
2023-04-18T08:20:54.517Z,10.32
2023-04-18T08:22:08.516Z,11.63
2023-04-18T08:23:12.775Z,11.45
2023-04-18T08:24:14.966Z,10.98
2023-04-18T08:25:17.094Z,9.80
2023-04-18T08:26:22.215Z,11.77
2023-04-18T08:27:23.941Z,11.52
2023-04-18T08:28:25.862Z,12.05
2023-04-18T08:29:27.604Z,11.00
2023-04-18T08:30:29.571Z,11.23
2023-04-18T08:31:31.885Z,10.90
2023-04-18T08:32:33.889Z,10.40
2023-04-18T08:33:35.841Z,10.40
2023-04-18T08:34:38.246Z,10.68
2023-04-18T08:35:40.064Z,10.95
2023-04-18T08:36:41.769Z,10.43
2023-04-18T08:39:14.655Z,10.88
2023-04-18T08:40:16.892Z,11.45
2023-04-18T08:41:22.122Z,11.60
2023-04-18T08:42:23.963Z,10.50
2023-04-18T08:43:25.608Z,11.13
2023-04-18T08:44:30.664Z,10.52
2023-04-18T08:45:33.479Z,11.30
2023-04-18T08:46:36.272Z,9.70
2023-04-18T08:47:37.935Z,10.02
2023-04-18T08:48:39.587Z,10.75
2023-04-18T08:49:41.224Z,10.80
2023-04-18T08:50:43.416Z,10.90
2023-04-18T08:51:47.480Z,11.38
2023-04-18T08:52:50.598Z,11.73
2023-04-18T08:53:53.169Z,12.48
2023-04-18T08:54:54.781Z,12.65
2023-04-18T08:55:57.345Z,12.45
2023-04-18T08:57:06.491Z,12.95
2023-04-18T08:58:08.138Z,12.50
2023-04-18T08:59:11.585Z,12.70
2023-04-18T09:00:14.003Z,13.43
2023-04-18T09:01:17.842Z,13.05
2023-04-18T09:02:22.383Z,13.48
2023-04-18T09:03:44.173Z,14.18
2023-04-18T09:04:49.321Z,14.32
2023-04-18T09:06:10.093Z,14.80
2023-04-18T09:07:17.868Z,14.05
2023-04-18T09:08:24.298Z,14.65
2023-04-18T09:09:27.605Z,15.25
2023-04-18T09:10:34.164Z,15.18
2023-04-18T09:11:35.742Z,13.85
2023-04-18T09:12:49.939Z,14.27
2023-04-18T09:13:53.217Z,13.65
2023-04-18T09:14:59.677Z,14.30
2023-04-18T09:16:01.220Z,15.20
2023-04-18T09:17:04.185Z,12.27
2023-04-18T09:18:10.403Z,11.18
2023-04-18T09:19:14.588Z,13.45
2023-04-18T09:20:30.767Z,12.10
2023-04-18T09:21:32.915Z,11.13
2023-04-18T09:22:52.181Z,14.68
2023-04-18T09:24:17.567Z,10.90
2023-04-18T09:25:43.244Z,11.10
2023-04-18T09:26:47.980Z,11.20
2023-04-18T09:27:49.637Z,12.32
2023-04-18T09:28:53.909Z,12.48
2023-04-18T09:29:57.375Z,15.65
2023-04-18T09:31:09.670Z,15.40
2023-04-18T09:32:11.528Z,13.32
2023-04-18T09:33:14.619Z,12.88
2023-04-18T09:34:25.154Z,14.98
2023-04-18T09:35:27.376Z,15.00
2023-04-18T09:36:29.233Z,16.42
2023-04-18T09:37:31.164Z,14.68
2023-04-18T09:38:44.876Z,17.70
2023-04-18T09:39:46.656Z,16.55
2023-04-18T09:41:08.052Z,15.57
2023-04-18T09:43:19.912Z,14.43
2023-04-18T09:44:21.626Z,12.85
2023-04-18T09:45:24.963Z,12.63
2023-04-18T09:46:27.948Z,13.23
2023-04-18T09:47:30.847Z,12.95
2023-04-18T09:48:32.567Z,12.05
2023-04-18T09:49:34.806Z,11.90
2023-04-18T09:50:39.233Z,11.75
2023-04-18T09:51:42.258Z,12.00
2023-04-18T09:52:46.044Z,12.15
2023-04-18T09:53:48.156Z,12.13
2023-04-18T09:54:55.604Z,12.52
2023-04-18T09:55:57.992Z,14.18
2023-04-18T09:57:02.990Z,15.10
2023-04-18T09:58:05.997Z,14.95
2023-04-18T09:59:10.074Z,14.57
2023-04-18T10:00:17.514Z,15.05
2023-04-18T10:01:19.589Z,15.30
2023-04-18T10:02:23.208Z,15.88
2023-04-18T10:03:32.859Z,15.18
2023-04-18T10:04:35.089Z,16.65
2023-04-18T10:05:40.109Z,16.08
2023-04-18T10:06:44.572Z,16.25
2023-04-18T10:07:48.095Z,18.08
2023-04-18T10:08:52.026Z,17.35
2023-04-18T10:09:53.830Z,18.25
2023-04-18T10:10:58.006Z,17.00
2023-04-18T10:12:02.472Z,17.38
2023-04-18T10:13:06.295Z,18.08
2023-04-18T10:14:12.892Z,18.00
2023-04-18T10:15:16.144Z,17.60
2023-04-18T10:16:18.323Z,18.13
2023-04-18T10:17:20.459Z,18.23
2023-04-18T10:18:25.050Z,17.27
2023-04-18T10:19:28.554Z,17.48
2023-04-18T10:20:32.005Z,18.83
2023-04-18T10:21:34.541Z,20.13
2023-04-18T10:22:36.704Z,20.58
2023-04-18T10:23:40.004Z,21.17
2023-04-18T10:24:49.776Z,21.55
2023-04-18T10:25:51.910Z,21.35
2023-04-18T10:26:53.672Z,19.67
2023-04-18T10:27:57.309Z,21.48
2023-04-18T10:28:59.569Z,20.52
2023-04-18T10:30:01.306Z,20.65
2023-04-18T10:31:04.321Z,21.88
2023-04-18T10:32:07.147Z,18.88
2023-04-18T10:33:30.355Z,19.65
2023-04-18T10:34:33.381Z,17.88
2023-04-18T10:35:36.091Z,19.30
2023-04-18T10:36:57.736Z,19.20
2023-04-18T10:38:00.154Z,17.50
2023-04-18T10:39:23.389Z,15.27
2023-04-18T10:40:34.791Z,16.55
2023-04-18T10:41:50.576Z,13.63
2023-04-18T10:42:52.758Z,16.58
2023-04-18T10:44:15.815Z,15.10
2023-04-18T10:45:24.915Z,14.25
2023-04-18T10:46:32.589Z,14.90
2023-04-18T10:47:34.923Z,15.32
2023-04-18T10:48:39.326Z,14.35
2023-04-18T10:49:54.333Z,15.23
2023-04-18T10:51:20.729Z,14.38
2023-04-18T10:52:22.547Z,14.75
2023-04-18T10:53:24.332Z,15.07
2023-04-18T10:54:28.121Z,14.25
2023-04-18T10:55:31.369Z,13.75
2023-04-18T10:56:33.173Z,13.80
2023-04-18T10:57:43.036Z,16.80
2023-04-18T10:58:52.140Z,15.80
2023-04-18T10:59:54.959Z,14.43
2023-04-18T11:00:57.076Z,16.27
2023-04-18T11:02:26.434Z,16.30
2023-04-18T11:03:33.802Z,15.23
2023-04-18T11:04:36.067Z,14.70
2023-04-18T11:05:37.875Z,15.52
2023-04-18T11:06:58.509Z,15.73
2023-04-18T11:08:00.319Z,15.30
2023-04-18T11:09:13.792Z,16.45
2023-04-18T11:10:24.619Z,15.05
2023-04-18T11:11:26.413Z,14.45
2023-04-18T11:12:32.937Z,15.25
2023-04-18T11:13:36.977Z,13.90
2023-04-18T11:14:47.722Z,16.17
2023-04-18T11:15:49.411Z,15.73
2023-04-18T11:16:51.279Z,14.32
2023-04-18T11:18:02.849Z,14.68
2023-04-18T11:19:22.012Z,15.27
2023-04-18T11:20:24.009Z,14.07
2023-04-18T11:21:30.715Z,15.18
2023-04-18T11:22:32.828Z,15.70
2023-04-18T11:23:34.674Z,15.50
2023-04-18T11:24:36.928Z,16.77
2023-04-18T11:25:40.635Z,16.40
2023-04-18T11:26:44.594Z,16.77
2023-04-18T11:27:48.170Z,16.77
2023-04-18T11:28:59.181Z,15.00
2023-04-18T11:30:00.966Z,16.73
2023-04-18T11:31:03.189Z,17.50
2023-04-18T11:32:09.431Z,18.10
2023-04-18T11:33:12.650Z,18.55
2023-04-18T11:34:14.722Z,19.85
2023-04-18T11:35:16.645Z,18.98
2023-04-18T11:36:18.458Z,19.75
2023-04-18T11:37:20.945Z,19.10
2023-04-18T11:38:28.908Z,19.95
2023-04-18T11:39:34.854Z,18.95
2023-04-18T11:40:39.871Z,18.73
2023-04-18T11:41:41.997Z,18.52
2023-04-18T11:42:43.802Z,19.40
2023-04-18T11:43:46.651Z,17.23
2023-04-18T11:44:49.350Z,18.30
2023-04-18T11:45:59.939Z,19.40
2023-04-18T11:47:01.737Z,19.05
2023-04-18T11:48:03.585Z,19.30
2023-04-18T11:49:05.577Z,19.20
2023-04-18T11:50:08.892Z,19.17
2023-04-18T11:51:35.687Z,18.33
2023-04-18T11:52:38.463Z,18.10
2023-04-18T11:53:40.228Z,19.65
2023-04-18T11:54:44.134Z,19.40
2023-04-18T11:55:55.955Z,18.50
2023-04-18T11:56:57.847Z,22.70
2023-04-18T11:58:01.444Z,20.70
2023-04-18T11:59:09.803Z,21.17
2023-04-18T12:00:12.677Z,22.92
2023-04-18T12:01:21.253Z,32.22
2023-04-18T12:02:24.696Z,29.58
2023-04-18T12:03:29.282Z,29.77
2023-04-18T12:05:00.265Z,22.35
2023-04-18T12:06:02.548Z,17.38
2023-04-18T12:07:05.008Z,14.80
2023-04-18T12:08:17.387Z,16.00
2023-04-18T12:09:21.358Z,16.27
2023-04-18T12:10:24.511Z,17.92
2023-04-18T12:11:26.294Z,17.45
2023-04-18T12:12:28.031Z,20.10
2023-04-18T12:13:33.172Z,22.00
2023-04-18T12:14:36.024Z,21.70
2023-04-18T12:15:40.691Z,17.98
2023-04-18T12:16:42.428Z,13.98
2023-04-18T12:17:45.556Z,15.32
2023-04-18T12:18:49.444Z,15.60
2023-04-18T12:19:53.633Z,15.13
2023-04-18T12:20:55.406Z,16.77
2023-04-18T12:22:01.510Z,15.20
2023-04-18T12:23:03.789Z,15.93
2023-04-18T12:24:18.339Z,14.43
2023-04-18T12:25:27.552Z,15.45
2023-04-18T12:26:29.644Z,12.55
2023-04-18T12:28:01.371Z,12.60
2023-04-18T12:29:03.067Z,11.80
2023-04-18T12:30:05.189Z,12.75
2023-04-18T12:31:07.519Z,11.48
2023-04-18T12:32:09.329Z,12.30
2023-04-18T12:33:11.652Z,13.75
2023-04-18T12:34:16.210Z,12.00
2023-04-18T12:35:21.648Z,12.23
2023-04-18T12:36:23.594Z,13.10
2023-04-18T12:37:25.735Z,12.38
2023-04-18T12:38:27.684Z,15.73
2023-04-18T12:39:29.378Z,14.00
2023-04-18T12:40:31.222Z,14.48
2023-04-18T12:41:32.986Z,14.55
2023-04-18T12:42:34.712Z,14.48
2023-04-18T12:43:36.403Z,15.27
2023-04-18T12:44:38.080Z,13.73
2023-04-18T12:45:39.824Z,13.20
2023-04-18T12:46:41.648Z,12.95
2023-04-18T12:47:45.848Z,12.77
2023-04-18T12:48:47.630Z,13.35
2023-04-18T12:49:49.302Z,12.93
2023-04-18T12:50:51.091Z,14.18
2023-04-18T12:51:52.791Z,12.73
2023-04-18T12:52:55.751Z,13.65
2023-04-18T12:53:57.435Z,13.88
2023-04-18T12:54:59.258Z,12.27
2023-04-18T12:56:01.070Z,12.10
2023-04-18T12:57:03.400Z,13.25
2023-04-18T12:58:05.127Z,13.13
2023-04-18T12:59:06.845Z,13.30
2023-04-18T13:00:13.170Z,13.98
2023-04-18T13:01:15.602Z,13.50
2023-04-18T13:02:17.515Z,13.23
2023-04-18T13:03:19.506Z,13.55
2023-04-18T13:04:21.775Z,13.80
2023-04-18T13:05:27.311Z,12.70
2023-04-18T13:06:30.872Z,13.95
2023-04-18T13:07:33.161Z,14.77
2023-04-18T13:08:35.070Z,15.68
2023-04-18T13:09:36.791Z,15.48
2023-04-18T13:10:38.514Z,16.35
2023-04-18T13:11:40.327Z,18.50
2023-04-18T13:12:42.147Z,17.17
2023-04-18T13:13:43.833Z,17.05
2023-04-18T13:14:46.668Z,19.58
2023-04-18T13:15:48.431Z,19.98
2023-04-18T13:16:50.422Z,17.65
2023-04-18T13:17:52.110Z,17.50
2023-04-18T13:18:53.840Z,19.55
2023-04-18T13:19:56.817Z,18.05
2023-04-18T13:20:58.518Z,17.17
2023-04-18T13:22:01.338Z,16.40
2023-04-18T13:23:03.343Z,15.77
2023-04-18T13:24:05.463Z,15.50
2023-04-18T13:25:08.452Z,17.42
2023-04-18T13:26:11.872Z,16.50
2023-04-18T13:27:16.448Z,17.83
2023-04-18T13:28:18.138Z,19.15
2023-04-18T13:29:19.812Z,19.70
2023-04-18T13:30:21.545Z,19.63
2023-04-18T13:31:23.322Z,20.10
2023-04-18T13:32:25.893Z,19.23
2023-04-18T13:33:27.612Z,19.23
2023-04-18T13:34:29.698Z,18.88
2023-04-18T13:35:31.447Z,19.38
2023-04-18T13:36:37.386Z,19.35
2023-04-18T13:37:39.932Z,19.38
2023-04-18T13:38:41.669Z,19.88
2023-04-18T13:39:43.634Z,18.75
2023-04-18T13:40:45.491Z,20.00
2023-04-18T13:41:47.183Z,19.75
2023-04-18T13:42:48.897Z,18.75
2023-04-18T13:43:50.606Z,18.58
2023-04-18T13:44:52.592Z,15.77